Time;durP1;ratioP1;P1;durP2;ratioP2;P2;SDS_P1;SDS_P2;PMS_P1;PMS_P2;Temp;Humidity;BMP_temperature;BMP_pressure;BME280_temperature;BME280_humidity;BME280_pressure;Samples;Min_cycle;Max_cycle;Signal;HPM_P1;HPM_P2
2021/05/10 00:00:28;;;;;;;1.50;1.40;;;;;;;21.36;35.26;99035.69;10157448;28;20240;-71
2021/05/10 00:05:30;;;;;;;2.75;1.55;;;;;;;21.30;35.29;99050.25;10157104;28;20294;-71
2021/05/10 00:10:34;;;;;;;3.38;1.80;;;;;;;21.23;35.48;99044.06;10158682;28;21518;-71
2021/05/10 00:15:37;;;;;;;1.98;1.50;;;;;;;21.25;35.56;99049.28;10174518;28;20244;-71
2021/05/10 00:20:41;;;;;;;2.45;1.70;;;;;;;21.32;35.56;99039.13;10193494;28;20250;-71
2021/05/10 00:25:45;;;;;;;2.83;1.83;;;;;;;21.31;35.73;99045.63;10193396;28;20293;-71
2021/05/10 00:30:47;;;;;;;2.83;1.85;;;;;;;21.28;35.79;99037.88;10195157;28;20250;-71
2021/05/10 00:35:49;;;;;;;3.70;1.90;;;;;;;21.32;35.71;99037.22;10193988;28;20250;-71
2021/05/10 00:40:52;;;;;;;3.25;2.00;;;;;;;21.20;35.72;99041.75;10194925;28;20242;-71
2021/05/10 00:45:54;;;;;;;2.78;1.77;;;;;;;21.16;35.95;99044.09;10194273;28;20231;-71
2021/05/10 00:50:56;;;;;;;3.72;1.70;;;;;;;21.09;36.44;99040.63;10194410;28;20242;-71
2021/05/10 00:55:59;;;;;;;3.80;2.10;;;;;;;20.78;36.87;99046.97;10193962;28;20242;-71
2021/05/10 01:01:05;;;;;;;4.72;1.90;;;;;;;20.75;37.06;99061.88;10191470;28;20238;-71
2021/05/10 01:06:07;;;;;;;4.68;1.75;;;;;;;20.56;37.53;99060.97;10186519;28;22028;-71
2021/05/10 01:11:10;;;;;;;2.05;1.85;;;;;;;20.57;37.26;99056.38;10187639;28;20620;-71
2021/05/10 01:16:12;;;;;;;2.85;1.80;;;;;;;20.63;37.48;99050.03;10166850;28;20244;-71
2021/05/10 01:21:16;;;;;;;4.07;2.20;;;;;;;20.56;37.82;99062.88;10155229;28;20239;-71
2021/05/10 01:26:19;;;;;;;2.50;1.95;;;;;;;20.54;38.06;99049.47;10147762;28;20236;-71
2021/05/10 01:31:21;;;;;;;2.40;2.20;;;;;;;20.47;37.98;99053.31;10143714;28;20242;-71
2021/05/10 01:36:23;;;;;;;5.03;1.88;;;;;;;20.48;37.92;99060.41;10147091;28;20655;-71
2021/05/10 01:41:26;;;;;;;2.83;1.90;;;;;;;20.43;38.28;99065.69;10143559;28;20300;-71
2021/05/10 01:46:28;;;;;;;2.65;2.00;;;;;;;20.36;38.49;99064.94;10143618;28;20250;-71
2021/05/10 01:51:30;;;;;;;3.72;1.83;;;;;;;20.44;38.70;99078.31;10141333;28;20235;-71
2021/05/10 01:56:36;;;;;;;4.07;2.00;;;;;;;20.30;38.74;99078.34;10140211;28;20358;-71
2021/05/10 02:01:38;;;;;;;3.97;2.05;;;;;;;20.23;39.22;99077.53;10141442;28;20248;-71
2021/05/10 02:06:40;;;;;;;2.65;1.98;;;;;;;20.26;38.97;99081.72;10142626;28;21288;-71
2021/05/10 02:11:42;;;;;;;2.28;2.05;;;;;;;20.27;38.79;99073.34;10142125;28;20249;-71
2021/05/10 02:16:44;;;;;;;3.80;1.98;;;;;;;20.37;39.07;99072.03;10167066;28;20241;-71
2021/05/10 02:21:46;;;;;;;2.72;1.85;;;;;;;20.39;38.47;99061.75;10184713;28;20732;-71
2021/05/10 02:26:49;;;;;;;4.05;2.20;;;;;;;20.45;38.97;99056.25;10183445;28;20708;-71
2021/05/10 02:31:51;;;;;;;2.90;2.05;;;;;;;20.48;38.95;99052.25;10186399;28;20235;-71
2021/05/10 02:36:53;;;;;;;3.00;1.90;;;;;;;20.48;39.17;99039.44;10189912;28;20227;-72
2021/05/10 02:41:56;;;;;;;2.88;1.95;;;;;;;20.38;39.66;99041.84;10194835;28;20238;-71
2021/05/10 02:46:58;;;;;;;3.40;2.20;;;;;;;20.34;39.59;99026.97;10197043;28;20322;-71
2021/05/10 02:52:00;;;;;;;2.13;1.80;;;;;;;20.36;39.67;99021.31;10196251;28;20809;-71
2021/05/10 02:57:03;;;;;;;5.70;2.05;;;;;;;20.29;40.00;99000.31;10196173;28;20627;-71
2021/05/10 03:02:05;;;;;;;4.85;1.90;;;;;;;20.23;40.55;99012.13;10189519;28;20231;-71
2021/05/10 03:07:11;;;;;;;2.35;2.15;;;;;;;20.13;40.82;99015.34;10184990;28;20227;-71
2021/05/10 03:12:14;;;;;;;4.32;2.00;;;;;;;20.01;41.18;99018.97;10185882;28;20230;-71
2021/05/10 03:17:16;;;;;;;4.20;2.10;;;;;;;19.89;41.89;99021.56;10154049;28;20231;-71
2021/05/10 03:22:18;;;;;;;5.70;2.10;;;;;;;19.66;42.79;99009.34;10144685;28;20333;-71
2021/05/10 03:27:21;;;;;;;3.13;2.10;;;;;;;19.52;43.01;99007.66;10144154;28;20239;-71
2021/05/10 03:32:23;;;;;;;2.33;2.13;;;;;;;19.45;43.42;98998.72;10145303;28;20263;-71
2021/05/10 03:37:26;;;;;;;3.65;2.30;;;;;;;19.49;42.84;99008.09;10143567;28;20639;-71
2021/05/10 03:42:28;;;;;;;3.65;2.65;;;;;;;19.50;43.25;99006.22;10143079;28;20722;-70
2021/05/10 03:47:39;;;;;;;4.47;2.35;;;;;;;19.30;43.34;99011.75;10144648;28;20482;-71
2021/05/10 03:52:42;;;;;;;2.50;2.10;;;;;;;19.17;43.67;99002.56;10144014;28;20298;-70
2021/05/10 03:57:45;;;;;;;3.17;2.42;;;;;;;19.18;43.69;99004.25;10144725;28;20240;-71
2021/05/10 04:02:47;;;;;;;4.85;2.28;;;;;;;19.20;43.72;98998.59;10144557;28;20246;-71
2021/05/10 04:07:54;;;;;;;3.47;2.33;;;;;;;19.22;43.49;98991.84;10146205;28;20239;-71
2021/05/10 04:18:16;;;;;;;6.15;2.63;;;;;;;19.06;43.90;99002.38;10102525;28;20235;-71
2021/05/10 04:23:21;;;;;;;4.00;2.50;;;;;;;19.02;44.43;98999.25;10101787;28;25072;-71
2021/05/10 04:28:24;;;;;;;3.00;2.50;;;;;;;18.91;44.63;98989.03;10101768;28;20741;-71
2021/05/10 04:33:27;;;;;;;3.45;2.60;;;;;;;18.88;45.41;98997.63;10104444;28;20239;-70
2021/05/10 04:38:29;;;;;;;3.38;2.70;;;;;;;18.78;44.67;99012.47;10105969;28;20249;-71
2021/05/10 04:43:32;;;;;;;2.85;2.25;;;;;;;18.76;45.10;99011.00;10104582;28;20590;-71
2021/05/10 04:48:34;;;;;;;3.13;2.47;;;;;;;18.77;45.20;99018.09;10100516;28;20236;-71
2021/05/10 04:53:36;;;;;;;2.83;2.53;;;;;;;18.80;45.26;99013.09;10097701;28;20246;-70
2021/05/10 04:58:39;;;;;;;4.40;3.00;;;;;;;18.96;44.95;99021.88;10096993;28;20248;-71
2021/05/10 05:03:41;;;;;;;6.25;2.80;;;;;;;18.96;45.13;99028.16;10099395;28;20249;-71
2021/05/10 05:08:43;;;;;;;6.22;3.03;;;;;;;18.97;45.17;99020.81;10099409;28;20257;-70
2021/05/10 05:13:45;;;;;;;5.28;2.80;;;;;;;19.04;44.99;99018.09;10103814;28;20288;-70
2021/05/10 05:18:47;;;;;;;3.45;2.35;;;;;;;19.22;45.11;99026.41;10177102;28;20698;-71
2021/05/10 05:23:49;;;;;;;2.80;2.60;;;;;;;19.43;44.48;99015.25;10175900;28;20607;-70
2021/05/10 05:28:52;;;;;;;3.33;2.42;;;;;;;19.52;44.40;99040.34;10178492;28;20769;-71
2021/05/10 05:33:54;;;;;;;2.85;2.60;;;;;;;19.76;44.26;99044.25;10178618;28;20242;-71
2021/05/10 05:39:06;;;;;;;4.90;2.47;;;;;;;19.95;44.08;99061.56;10181379;28;20238;-71
2021/05/10 05:44:09;;;;;;;5.35;2.63;;;;;;;20.03;44.31;99065.94;10180920;28;20234;-71
2021/05/10 05:49:11;;;;;;;3.92;2.58;;;;;;;20.06;44.45;99087.31;10181981;28;20227;-72
2021/05/10 05:54:14;;;;;;;3.05;2.58;;;;;;;19.98;45.00;99087.56;10180772;28;20256;-71
2021/05/10 05:59:17;;;;;;;3.08;2.75;;;;;;;19.97;44.89;99094.91;10181016;28;20253;-71
2021/05/10 06:04:19;;;;;;;2.50;2.30;;;;;;;19.93;45.27;99100.97;10180398;28;20247;-71
2021/05/10 06:09:21;;;;;;;4.10;2.72;;;;;;;20.13;43.62;99110.75;10186532;28;20252;-72
2021/05/10 06:14:24;;;;;;;4.32;2.92;;;;;;;20.16;42.53;99124.97;10175975;28;20243;-71
2021/05/10 06:19:26;;;;;;;2.90;2.10;;;;;;;20.93;39.81;99126.59;10143588;28;20588;-71
2021/05/10 06:24:28;;;;;;;2.85;2.20;;;;;;;20.90;39.30;99127.06;10142577;28;20238;-71
2021/05/10 06:29:31;;;;;;;2.17;1.95;;;;;;;21.19;39.13;99135.66;10127165;28;20247;-71
2021/05/10 06:34:33;;;;;;;2.30;2.10;;;;;;;21.22;39.30;99124.28;10130494;28;20256;-71
2021/05/10 06:39:35;;;;;;;4.40;1.85;;;;;;;21.08;39.21;99139.94;10144978;28;20236;-71
2021/05/10 06:44:38;;;;;;;4.38;2.03;;;;;;;21.17;39.49;99151.41;10143233;28;20250;-69
2021/05/10 06:49:40;;;;;;;2.78;1.90;;;;;;;21.58;39.83;99155.44;10154963;28;20252;-71
2021/05/10 06:54:42;;;;;;;4.75;2.47;;;;;;;21.44;39.62;99155.56;10143630;28;20266;-71
2021/05/10 06:59:44;;;;;;;2.40;2.00;;;;;;;21.17;40.73;99144.09;10145258;28;20580;-72
2021/05/10 07:04:46;;;;;;;4.45;2.20;;;;;;;21.01;41.87;99156.34;10145728;28;20871;-72
2021/05/10 07:09:48;;;;;;;4.07;2.40;;;;;;;20.88;42.04;99156.47;10147200;28;20243;-72
2021/05/10 07:14:51;;;;;;;3.15;2.00;;;;;;;20.75;43.50;99159.28;10159496;28;20250;-72
2021/05/10 07:19:53;;;;;;;3.95;2.05;;;;;;;20.67;43.49;99163.09;10189180;28;20235;-72
2021/05/10 07:24:55;;;;;;;2.63;2.30;;;;;;;20.66;44.10;99161.44;10188649;28;21526;-72
2021/05/10 07:29:58;;;;;;;4.40;2.38;;;;;;;21.02;43.38;99174.41;10193790;28;20246;-72
2021/05/10 07:35:00;;;;;;;3.03;2.35;;;;;;;21.10;43.30;99186.97;10193892;28;20340;-73
2021/05/10 07:40:02;;;;;;;5.47;2.45;;;;;;;21.44;42.05;99177.41;10163204;28;20273;-71
2021/05/10 07:45:06;;;;;;;2.63;1.90;;;;;;;21.68;41.20;99185.81;10155472;28;20244;-72
2021/05/10 07:50:08;;;;;;;4.15;2.30;;;;;;;21.08;41.80;99177.31;10189896;28;20236;-72
2021/05/10 07:55:11;;;;;;;4.07;2.55;;;;;;;21.29;41.70;99176.94;10193961;28;20243;-73
2021/05/10 08:00:19;;;;;;;2.55;2.35;;;;;;;21.31;40.75;99171.25;10182299;28;20244;-75
2021/05/10 08:05:21;;;;;;;3.58;2.30;;;;;;;21.64;40.62;99171.78;10146410;28;20242;-74
2021/05/10 08:10:23;;;;;;;5.57;2.47;;;;;;;22.05;39.83;99170.28;10141115;28;20239;-74
2021/05/10 08:15:26;;;;;;;3.55;2.20;;;;;;;21.86;40.55;99153.06;10139998;28;20290;-71
2021/05/10 08:20:28;;;;;;;2.45;1.98;;;;;;;22.18;39.96;99165.72;10154775;28;20242;-72
2021/05/10 08:25:30;;;;;;;1.88;1.77;;;;;;;22.65;38.96;99141.31;10157113;28;20232;-72
2021/05/10 08:30:33;;;;;;;3.38;2.38;;;;;;;23.06;37.85;99136.88;10154474;28;20263;-71
2021/05/10 08:35:35;;;;;;;3.80;2.10;;;;;;;22.01;39.99;99170.97;10155177;28;20244;-71
2021/05/10 08:40:37;;;;;;;6.15;2.10;;;;;;;22.43;39.76;99155.50;10155257;28;20243;-72
2021/05/10 08:45:41;;;;;;;1.65;1.55;;;;;;;22.65;39.30;99169.50;10154601;28;20271;-71
2021/05/10 08:50:42;;;;;;;4.40;1.95;;;;;;;22.89;39.11;99178.63;10156741;28;20726;-71
2021/05/10 08:55:44;;;;;;;3.78;1.70;;;;;;;22.59;39.09;99169.63;10156518;28;20605;-71
2021/05/10 09:00:51;;;;;;;2.75;2.22;;;;;;;22.78;38.83;99171.22;10156649;28;20618;-71
2021/05/10 09:05:57;;;;;;;3.80;2.05;;;;;;;22.47;39.84;99169.56;10152684;28;20340;-72
2021/05/10 09:11:06;;;;;;;4.07;2.00;;;;;;;23.83;37.78;99147.75;10126404;28;20232;-72
2021/05/10 09:16:10;;;;;;;2.72;2.00;;;;;;;23.71;37.47;99163.34;10166154;28;20816;-72
2021/05/10 09:21:14;;;;;;;2.78;2.35;;;;;;;24.01;38.09;99171.44;10164677;28;20317;-71
2021/05/10 09:26:36;;;;;;;3.78;2.10;;;;;;;25.37;36.09;99171.53;10177083;28;20280;-72
2021/05/10 09:31:48;;;;;;;3.72;2.08;;;;;;;24.16;36.88;99169.00;10160624;28;20292;-71
2021/05/10 09:37:01;;;;;;;2.45;1.83;;;;;;;24.19;36.68;99174.03;10161849;28;20235;-72
2021/05/10 09:42:06;;;;;;;3.92;2.00;;;;;;;24.25;36.55;99153.84;10166591;28;20237;-72
2021/05/10 09:47:09;;;;;;;2.45;1.70;;;;;;;24.80;35.75;99165.31;10168833;28;20238;-71
2021/05/10 09:52:21;;;;;;;4.07;2.10;;;;;;;24.48;36.81;99160.34;10166544;28;20254;-71
2021/05/10 09:57:23;;;;;;;2.85;2.00;;;;;;;24.57;36.46;99182.72;10167802;28;20231;-72
2021/05/10 10:02:34;;;;;;;3.53;1.73;;;;;;;24.84;36.69;99191.19;10168971;28;20246;-71
2021/05/10 10:07:38;;;;;;;2.22;1.45;;;;;;;24.08;38.03;99208.63;10163799;28;20390;-72
2021/05/10 10:12:40;;;;;;;3.58;2.03;;;;;;;23.52;38.75;99209.25;10156793;28;20263;-71
2021/05/10 10:17:45;;;;;;;2.35;1.80;;;;;;;25.27;36.24;99220.00;10196225;28;20243;-71
2021/05/10 10:22:50;;;;;;;3.05;1.50;;;;;;;23.68;37.08;99229.63;10201073;28;20247;-71
2021/05/10 10:27:52;;;;;;;3.47;1.60;;;;;;;24.28;36.51;99197.25;10153595;28;20290;-71
2021/05/10 10:32:59;;;;;;;1.33;1.20;;;;;;;24.79;35.67;99268.81;10160125;28;20236;-71
2021/05/10 10:38:08;;;;;;;2.60;1.70;;;;;;;24.26;37.02;99267.97;10160108;28;20798;-71
2021/05/10 10:43:24;;;;;;;2.10;1.45;;;;;;;23.57;38.41;99295.16;10158713;28;20553;-71
2021/05/10 10:48:31;;;;;;;3.10;1.65;;;;;;;24.26;36.86;99302.81;10159599;28;20248;-72
2021/05/10 10:53:45;;;;;;;2.35;1.58;;;;;;;23.60;37.89;99324.81;10155869;28;20239;-71
2021/05/10 10:59:22;;;;;;;3.70;1.50;;;;;;;23.13;37.79;99323.88;10156319;28;20321;-71
2021/05/10 11:04:29;;;;;;;2.90;1.60;;;;;;;23.66;36.19;99323.88;10153170;28;20669;-71
2021/05/10 11:09:55;;;;;;;2.25;1.10;;;;;;;24.87;35.71;99326.09;10145669;28;20228;-72
2021/05/10 11:14:57;;;;;;;2.60;1.38;;;;;;;22.99;37.10;99343.19;10141546;28;20236;-70
2021/05/10 11:20:10;;;;;;;3.72;1.60;;;;;;;24.49;35.98;99334.91;10186952;28;20241;-71
2021/05/10 11:25:39;;;;;;;2.20;1.73;;;;;;;24.00;37.07;99342.56;10187191;28;20321;-70
2021/05/10 11:30:54;;;;;;;9.98;1.98;;;;;;;24.20;37.55;99342.19;10175327;28;20256;-70
2021/05/10 11:35:57;;;;;;;6.43;1.92;;;;;;;24.41;38.16;99373.69;10163537;28;20377;-70
2021/05/10 11:40:59;;;;;;;6.40;2.00;;;;;;;25.34;36.50;99336.06;10177943;28;20260;-71
2021/05/10 11:46:01;;;;;;;7.70;2.70;;;;;;;24.06;38.64;99367.13;10172858;28;20794;-70
2021/05/10 11:51:18;;;;;;;3.60;1.95;;;;;;;24.61;38.50;99359.59;10190712;28;20246;-70
2021/05/10 11:56:24;;;;;;;4.50;1.52;;;;;;;24.58;36.61;99373.81;10176194;28;20228;-71
2021/05/10 12:01:38;;;;;;;2.03;1.83;;;;;;;23.80;37.80;99360.16;10176122;28;20335;-70
2021/05/10 12:06:41;;;;;;;2.60;1.67;;;;;;;23.79;38.83;99380.44;10173645;28;20235;-70
2021/05/10 12:11:43;;;;;;;3.95;1.45;;;;;;;24.30;37.84;99397.31;10163701;28;20269;-71
2021/05/10 12:17:00;;;;;;;2.60;1.33;;;;;;;23.78;38.22;99417.16;10152486;28;20277;-70
2021/05/10 12:22:06;;;;;;;1.80;1.50;;;;;;;24.04;38.26;99439.72;10175555;28;20251;-71
2021/05/10 12:27:09;;;;;;;3.65;1.67;;;;;;;25.18;36.53;99453.13;10128021;28;20240;-71
2021/05/10 12:32:11;;;;;;;1.58;1.30;;;;;;;24.13;37.43;99449.28;10137890;28;20252;-71
2021/05/10 12:37:14;;;;;;;1.65;1.40;;;;;;;22.55;39.80;99456.56;10148786;28;20246;-70
2021/05/10 12:42:18;;;;;;;2.22;1.15;;;;;;;22.24;40.40;99477.44;10151300;28;20609;-70
2021/05/10 12:47:44;;;;;;;1.98;1.00;;;;;;;22.20;41.47;99459.78;10153068;28;20699;-70
2021/05/10 12:52:51;;;;;;;2.38;0.98;;;;;;;22.39;40.00;99470.78;10152129;28;20243;-70
2021/05/10 12:57:54;;;;;;;2.05;1.10;;;;;;;23.06;38.54;99481.91;10153687;28;20332;-70
2021/05/10 13:02:57;;;;;;;2.05;0.90;;;;;;;23.65;38.23;99502.28;10150205;28;20238;-70
2021/05/10 13:08:00;;;;;;;1.63;0.90;;;;;;;23.59;37.82;99520.50;10141599;28;20323;-70
2021/05/10 13:13:04;;;;;;;1.30;0.80;;;;;;;23.56;38.22;99511.88;10135947;28;20251;-70
2021/05/10 13:18:29;;;;;;;2.20;0.95;;;;;;;24.81;35.48;99544.00;10141467;28;20250;-71
2021/05/10 13:34:24;;;;;;;2.25;1.02;;;;;;;24.90;34.98;99534.34;10122639;28;20243;-71
2021/05/10 13:39:27;;;;;;;0.95;0.63;;;;;;;22.68;37.82;99559.56;10112601;28;20255;-70
2021/05/10 13:44:29;;;;;;;1.88;1.00;;;;;;;22.62;38.59;99550.38;10100253;28;20236;-70
2021/05/10 13:49:34;;;;;;;1.58;0.82;;;;;;;22.20;39.44;99544.56;10100444;28;20244;-71
2021/05/10 13:54:37;;;;;;;2.22;0.90;;;;;;;21.96;39.58;99540.72;10112567;28;20247;-71
2021/05/10 13:59:39;;;;;;;2.45;1.00;;;;;;;22.29;40.01;99556.06;10126032;28;20265;-72
2021/05/10 14:04:41;;;;;;;0.95;0.90;;;;;;;22.16;39.82;99573.44;10140261;28;20251;-71
2021/05/10 14:09:45;;;;;;;1.15;0.90;;;;;;;21.85;40.48;99546.88;10140260;28;21492;-71
2021/05/10 14:14:47;;;;;;;0.90;0.90;;;;;;;21.26;41.05;99559.72;10141861;28;20246;-71
2021/05/10 14:19:49;;;;;;;2.08;1.00;;;;;;;21.81;39.60;99553.84;10141119;28;20249;-71
2021/05/10 14:24:52;;;;;;;2.05;1.00;;;;;;;21.98;39.50;99533.13;10141350;28;20241;-71
2021/05/10 14:29:54;;;;;;;0.93;0.85;;;;;;;22.34;39.26;99542.56;10148806;28;20240;-71
2021/05/10 14:34:56;;;;;;;2.15;0.82;;;;;;;23.54;37.21;99545.03;10150225;28;20251;-71
2021/05/10 14:39:59;;;;;;;1.58;0.80;;;;;;;22.94;36.76;99550.28;10149008;28;20251;-71
2021/05/10 14:45:21;;;;;;;0.90;0.90;;;;;;;22.49;36.99;99553.22;10148055;28;20315;-71
2021/05/10 14:50:23;;;;;;;0.98;0.82;;;;;;;21.47;40.01;99564.03;10146445;28;20636;-71
2021/05/10 14:55:26;;;;;;;1.83;0.80;;;;;;;21.54;40.61;99547.63;10145043;28;20295;-71
2021/05/10 15:00:28;;;;;;;1.17;1.00;;;;;;;21.93;40.23;99529.38;10147205;28;20250;-71
2021/05/10 15:05:30;;;;;;;2.75;1.00;;;;;;;22.00;39.67;99535.66;10114870;28;20244;-71
2021/05/10 15:10:34;;;;;;;1.17;0.95;;;;;;;21.77;39.89;99539.75;10106289;28;20645;-71
2021/05/10 15:15:36;;;;;;;2.42;1.10;;;;;;;21.60;40.23;99538.56;10145709;28;20239;-72
2021/05/10 15:20:38;;;;;;;1.27;1.15;;;;;;;22.04;40.30;99554.13;10141922;28;20251;-70
2021/05/10 15:25:45;;;;;;;2.42;1.25;;;;;;;21.88;40.00;99587.44;10119806;28;20752;-72
2021/05/10 15:30:49;;;;;;;2.92;1.20;;;;;;;21.73;40.79;99600.53;10137575;28;20243;-71
2021/05/10 15:35:51;;;;;;;1.08;0.98;;;;;;;21.17;41.52;99597.34;10146057;28;20799;-70
2021/05/10 15:40:54;;;;;;;3.38;1.20;;;;;;;21.41;41.65;99617.63;10140426;28;20236;-72
2021/05/10 15:45:56;;;;;;;1.10;1.00;;;;;;;21.51;41.35;99622.66;10142368;28;20622;-72
2021/05/10 15:51:00;;;;;;;1.88;1.10;;;;;;;21.51;41.59;99630.88;10143828;28;20252;-72
2021/05/10 15:56:04;;;;;;;1.45;1.30;;;;;;;21.34;41.70;99630.50;10142842;28;20243;-72
2021/05/10 16:01:06;;;;;;;1.40;1.30;;;;;;;21.29;42.19;99630.28;10136353;28;20262;-74
2021/05/10 16:06:08;;;;;;;3.65;1.20;;;;;;;21.26;41.72;99636.19;10123378;28;20275;-74
2021/05/10 16:11:11;;;;;;;2.50;1.20;;;;;;;20.60;42.40;99634.28;10137279;28;20223;-74
2021/05/10 16:16:13;;;;;;;1.75;1.05;;;;;;;20.99;42.10;99633.44;10162546;28;20239;-73
2021/05/10 16:21:15;;;;;;;1.67;1.30;;;;;;;20.79;42.89;99640.78;10161691;28;20246;-73
2021/05/10 16:26:18;;;;;;;1.38;1.27;;;;;;;21.18;41.70;99644.59;10147765;28;20250;-73
2021/05/10 16:31:20;;;;;;;2.38;1.25;;;;;;;21.19;42.57;99641.63;10127860;28;20248;-73
2021/05/10 16:36:22;;;;;;;2.42;1.75;;;;;;;21.00;42.77;99647.91;10107990;28;20244;-74
2021/05/10 16:41:26;;;;;;;2.58;1.60;;;;;;;20.50;45.28;99655.66;10119180;28;20236;-73
2021/05/10 16:46:28;;;;;;;2.75;1.60;;;;;;;20.33;46.50;99653.31;10154150;28;20639;-73
2021/05/10 16:51:30;;;;;;;3.20;2.40;;;;;;;19.71;48.45;99656.19;10151286;28;20243;-73
2021/05/10 16:56:33;;;;;;;2.63;2.28;;;;;;;19.93;48.19;99674.09;10131466;28;22144;-73
2021/05/10 17:01:35;;;;;;;2.55;2.30;;;;;;;19.72;48.68;99674.19;10122546;28;20247;-74
2021/05/10 17:06:37;;;;;;;3.97;2.40;;;;;;;19.66;49.16;99663.09;10123690;28;20362;-74
2021/05/10 17:11:40;;;;;;;3.20;2.20;;;;;;;19.86;49.07;99665.06;10123912;28;20256;-74
2021/05/10 17:16:42;;;;;;;2.78;2.15;;;;;;;19.65;48.66;99666.00;10122169;28;20247;-74
2021/05/10 17:21:45;;;;;;;2.30;2.10;;;;;;;19.33;49.42;99662.00;10110561;28;20750;-73
2021/05/10 17:26:48;;;;;;;2.85;2.40;;;;;;;19.51;49.07;99656.03;10133655;28;20232;-73
2021/05/10 17:31:51;;;;;;;2.60;2.28;;;;;;;19.74;48.48;99655.78;10127648;28;20281;-74
2021/05/10 17:36:53;;;;;;;2.80;2.28;;;;;;;19.67;48.36;99662.03;10132098;28;20263;-73
2021/05/10 17:41:56;;;;;;;4.97;1.75;;;;;;;19.89;48.36;99668.22;10106950;28;20244;-73
2021/05/10 17:46:58;;;;;;;2.67;2.05;;;;;;;20.10;48.04;99667.28;10105048;28;20248;-73
2021/05/10 17:52:00;;;;;;;3.17;1.88;;;;;;;20.09;48.25;99673.75;10103663;28;20312;-74
2021/05/10 17:57:03;;;;;;;3.20;2.00;;;;;;;20.11;49.02;99681.75;10119365;28;21413;-73
2021/05/10 18:07:26;;;;;;;2.00;1.88;;;;;;;19.28;50.78;99698.00;10112339;28;20331;-74
2021/05/10 18:12:29;;;;;;;2.45;1.92;;;;;;;19.12;50.40;99701.00;10112434;28;20913;-73
2021/05/10 18:17:32;;;;;;;3.25;2.13;;;;;;;19.46;50.05;99706.50;10113702;28;20839;-73
2021/05/10 18:22:35;;;;;;;2.03;1.83;;;;;;;19.60;49.53;99715.63;10112647;28;20279;-73
2021/05/10 18:27:38;;;;;;;2.65;2.00;;;;;;;19.61;49.92;99714.59;10112425;28;20759;-74
2021/05/10 18:32:41;;;;;;;2.42;2.10;;;;;;;19.57;50.59;99712.47;10114654;28;20247;-74
2021/05/10 18:37:54;;;;;;;2.70;2.33;;;;;;;19.48;50.87;99721.81;10139740;28;20611;-74
2021/05/10 18:42:58;;;;;;;2.83;2.50;;;;;;;19.37;50.82;99723.19;10114616;28;20244;-73
2021/05/10 18:48:04;;;;;;;2.35;2.10;;;;;;;19.29;51.49;99732.34;10109834;28;20239;-74
2021/05/10 18:53:06;;;;;;;3.83;2.17;;;;;;;18.94;53.25;99736.84;10113189;28;20246;-74
2021/05/10 18:58:09;;;;;;;3.53;2.30;;;;;;;18.93;55.85;99732.44;10119795;28;20246;-73
2021/05/10 19:03:11;;;;;;;4.15;2.70;;;;;;;18.69;58.86;99739.06;10099645;28;20258;-73
2021/05/10 19:08:14;;;;;;;2.67;2.30;;;;;;;18.41;61.08;99731.66;10110028;28;21500;-73
2021/05/10 19:13:16;;;;;;;2.65;2.45;;;;;;;18.25;63.69;99748.19;10094672;28;20241;-73
2021/05/10 19:18:19;;;;;;;5.18;3.00;;;;;;;17.95;65.85;99731.88;10107929;28;20251;-73
2021/05/10 19:23:21;;;;;;;6.22;4.70;;;;;;;17.73;67.28;99720.09;10107949;28;20648;-71
2021/05/10 19:28:24;;;;;;;22.60;16.75;;;;;;;17.55;67.98;99719.59;10116382;28;20254;-72
2021/05/10 19:33:26;;;;;;;20.45;14.20;;;;;;;17.50;68.13;99719.31;10129222;28;20376;-72
2021/05/10 19:38:28;;;;;;;35.83;22.75;;;;;;;17.44;67.89;99713.63;10130486;28;20667;-72
2021/05/10 19:43:31;;;;;;;4.72;3.85;;;;;;;17.46;67.37;99721.56;10140240;28;20242;-72
2021/05/10 19:48:38;;;;;;;5.53;4.43;;;;;;;17.51;66.72;99723.72;10140444;28;20243;-72
2021/05/10 19:59:17;;;;;;;6.55;4.32;;;;;;;17.12;70.93;99741.88;10146733;28;20239;-72
2021/05/10 20:04:19;;;;;;;10.77;7.32;;;;;;;16.31;76.59;99732.41;10148159;28;20250;-71
2021/05/10 20:09:21;;;;;;;12.13;6.55;;;;;;;16.04;79.21;99730.97;10128023;28;20232;-71
2021/05/10 20:14:24;;;;;;;9.45;6.43;;;;;;;15.97;80.62;99720.03;10125759;28;20743;-71
2021/05/10 20:19:26;;;;;;;21.45;12.77;;;;;;;15.90;80.85;99716.31;10141908;28;20246;-72
2021/05/10 20:24:28;;;;;;;8.93;5.88;;;;;;;15.60;80.20;99715.22;10124517;28;20339;-72
2021/05/10 20:29:31;;;;;;;7.28;6.30;;;;;;;15.21;80.61;99727.59;10127895;28;20814;-72
2021/05/10 20:34:33;;;;;;;10.50;6.65;;;;;;;15.14;80.68;99736.56;10133793;28;20259;-72
2021/05/10 20:39:35;;;;;;;9.27;6.95;;;;;;;14.68;81.00;99742.47;10127171;28;20243;-71
2021/05/10 20:44:38;;;;;;;9.75;7.43;;;;;;;15.06;83.17;99732.03;10141255;28;20248;-71
2021/05/10 20:49:39;;;;;;;29.15;14.20;;;;;;;15.38;83.02;99758.22;10126336;28;20252;-71
2021/05/10 20:54:41;;;;;;;11.77;8.63;;;;;;;15.51;82.59;99760.41;10117472;28;20251;-71
2021/05/10 20:59:44;;;;;;;22.92;11.13;;;;;;;15.57;83.08;99742.63;10108118;28;20819;-72
2021/05/10 21:04:46;;;;;;;10.88;7.80;;;;;;;15.35;83.08;99741.50;10120991;28;20233;-72
2021/05/10 21:09:48;;;;;;;10.40;7.70;;;;;;;15.26;82.99;99740.63;10106762;28;20250;-71
2021/05/10 21:14:51;;;;;;;13.95;7.93;;;;;;;15.31;83.17;99751.78;10105443;28;20243;-72
2021/05/10 21:19:53;;;;;;;51.63;23.75;;;;;;;15.32;82.96;99753.47;10104158;28;20239;-71
2021/05/10 21:24:55;;;;;;;19.08;11.43;;;;;;;15.34;83.29;99773.13;10133487;28;20236;-70
2021/05/10 21:29:58;;;;;;;12.30;9.57;;;;;;;14.96;81.93;99783.56;10143750;28;20621;-70
2021/05/10 21:35:00;;;;;;;16.60;10.63;;;;;;;14.72;82.81;99784.38;10117009;28;20242;-71
2021/05/10 21:40:02;;;;;;;17.58;10.38;;;;;;;14.86;83.30;99793.69;10122272;28;20236;-72
2021/05/10 21:45:06;;;;;;;13.15;10.07;;;;;;;14.80;82.68;99813.28;10120290;28;20235;-71
2021/05/10 21:50:09;;;;;;;16.85;11.00;;;;;;;14.64;82.41;99821.34;10118118;28;20732;-72
2021/05/10 21:55:11;;;;;;;15.25;11.02;;;;;;;14.82;83.69;99819.38;10118247;28;20305;-71
2021/05/10 22:00:15;;;;;;;17.05;11.27;;;;;;;14.98;83.08;99799.63;10108200;28;20247;-72
2021/05/10 22:05:17;;;;;;;16.05;11.35;;;;;;;14.81;82.94;99821.25;10115520;28;20291;-72
2021/05/10 22:10:19;;;;;;;16.05;11.73;;;;;;;14.85;83.46;99813.63;10103157;28;20240;-72
2021/05/10 22:15:22;;;;;;;30.02;17.15;;;;;;;14.96;83.38;99780.03;10105382;28;20241;-72
2021/05/10 22:20:26;;;;;;;21.88;14.57;;;;;;;15.17;83.44;99757.91;10102984;28;20242;-72
2021/05/10 22:25:32;;;;;;;14.75;11.45;;;;;;;15.19;83.35;99766.66;10107962;28;20240;-72
2021/05/10 22:30:36;;;;;;;16.30;10.77;;;;;;;15.03;83.18;99779.19;10103042;28;20941;-72
2021/05/10 22:35:39;;;;;;;17.45;11.65;;;;;;;15.10;83.74;99786.63;10117745;28;20243;-72
2021/05/10 22:40:49;;;;;;;17.50;11.38;;;;;;;15.13;83.22;99778.16;10107427;28;20240;-71
2021/05/10 22:46:09;;;;;;;17.73;13.27;;;;;;;14.66;82.92;99785.03;10113809;28;20244;-72
2021/05/10 23:07:33;;;;;;;22.08;12.57;;;;;;;15.00;83.15;99766.00;10068788;28;20330;-72
2021/05/10 23:12:49;;;;;;;21.38;13.35;;;;;;;14.86;84.40;99744.16;10119193;28;20242;-72
2021/05/10 23:17:52;;;;;;;20.50;12.05;;;;;;;14.74;83.84;99809.38;10121693;28;20244;-72
2021/05/10 23:22:54;;;;;;;18.00;11.57;;;;;;;14.74;83.65;99768.84;10121457;28;20232;-72
2021/05/10 23:27:56;;;;;;;17.48;12.50;;;;;;;14.83;83.79;99751.59;10118873;28;20235;-72
2021/05/10 23:32:59;;;;;;;19.02;12.80;;;;;;;14.70;84.55;99772.91;10118246;28;20236;-72
2021/05/10 23:38:01;;;;;;;17.08;11.50;;;;;;;14.60;84.22;99759.50;10118094;28;20244;-72
2021/05/10 23:43:03;;;;;;;18.05;12.93;;;;;;;14.56;84.44;99762.69;10118274;28;20232;-72
2021/05/10 23:48:06;;;;;;;18.98;12.90;;;;;;;14.50;84.47;99780.44;10116455;28;20272;-72
2021/05/10 23:53:09;;;;;;;19.17;13.43;;;;;;;14.46;84.25;99770.97;10122757;28;20292;-72
2021/05/10 23:58:11;;;;;;;17.30;11.48;;;;;;;14.50;83.82;99766.06;10113799;28;20236;-71
